Sutherland Springs, Texas
Current Conditions -  °F | °C
As of 8:58 AM on Wednesday 26 Nov 2014 (Local Time) from KRND Reporting Station
Clear Clear  
Wind Chill: 55°   Ceiling: Unl
Heat Index: 55°   Visibility: 10mi
Dew Point: 30°   Wind: 12mph
Humidity: 39%   Direction: 220°SW
Pressure: 30.24"   Gusts: NA
Location:  29.27°N, 98.06°W
Report Text: KRND 261458Z AUTO 22010KT 10SM CLR 13/M01 A3024 RMK AO2 SLP239 T01281009 52011
Loading
Personal Weather Stations






























Interactive Weather Map New forecast layout! Learn more

10-Day Weather Forecast

Advertisements
Track Severe Weather on mobile